createdAt,value
2023-05-21T00:01:16.626Z,29.65
2023-05-21T00:03:46.085Z,30.27
2023-05-21T00:06:15.685Z,44.80
2023-05-21T00:08:43.953Z,32.92
2023-05-21T00:11:11.690Z,29.77
2023-05-21T00:13:40.024Z,39.90
2023-05-21T00:16:08.632Z,40.53
2023-05-21T00:18:39.394Z,38.17
2023-05-21T00:21:07.647Z,35.22
2023-05-21T00:23:37.718Z,31.50
2023-05-21T00:26:05.569Z,41.47
2023-05-21T00:28:33.433Z,33.63
2023-05-21T00:31:01.452Z,36.15
2023-05-21T00:33:29.349Z,30.60
2023-05-21T00:35:58.565Z,32.78
2023-05-21T00:38:27.983Z,35.60
2023-05-21T00:40:55.776Z,35.05
2023-05-21T00:43:26.713Z,33.72
2023-05-21T00:45:56.575Z,34.95
2023-05-21T00:48:24.996Z,37.67
2023-05-21T00:50:53.902Z,37.47
2023-05-21T00:53:23.098Z,35.22
2023-05-21T00:55:52.316Z,37.53
2023-05-21T00:58:20.356Z,43.40
2023-05-21T01:00:48.214Z,39.83
2023-05-21T01:03:16.475Z,43.95
2023-05-21T01:05:45.090Z,48.67
2023-05-21T01:08:13.462Z,43.13
2023-05-21T01:10:42.829Z,45.22
2023-05-21T01:13:11.172Z,41.05
2023-05-21T01:15:39.317Z,40.28
2023-05-21T01:18:07.682Z,43.28
2023-05-21T01:20:36.253Z,45.42
2023-05-21T01:23:06.782Z,44.40
2023-05-21T01:25:35.228Z,41.20
2023-05-21T01:28:03.211Z,37.63
2023-05-21T01:30:31.415Z,43.08
2023-05-21T01:33:04.068Z,37.33
2023-05-21T01:35:35.451Z,38.20
2023-05-21T01:38:13.316Z,44.25
2023-05-21T01:40:45.740Z,40.55
2023-05-21T01:43:15.408Z,38.63
2023-05-21T01:45:47.113Z,35.22
2023-05-21T01:48:17.455Z,42.00
2023-05-21T01:50:46.244Z,37.60
2023-05-21T01:53:17.324Z,33.10
2023-05-21T01:55:46.015Z,34.55
2023-05-21T01:58:13.919Z,36.42
2023-05-21T02:00:41.726Z,38.85
2023-05-21T02:03:09.790Z,37.97
2023-05-21T02:05:37.919Z,42.30
2023-05-21T02:08:08.465Z,33.17
2023-05-21T02:10:38.153Z,33.47
2023-05-21T02:13:06.351Z,34.00
2023-05-21T02:15:35.271Z,36.85
2023-05-21T02:18:04.465Z,33.40
2023-05-21T02:20:33.217Z,36.08
2023-05-21T02:23:01.176Z,38.75
2023-05-21T02:25:29.142Z,34.20
2023-05-21T02:27:58.686Z,35.78
2023-05-21T02:30:26.469Z,36.95
2023-05-21T02:32:54.890Z,38.33
2023-05-21T02:35:23.086Z,43.40
2023-05-21T02:37:50.998Z,41.15
2023-05-21T02:40:18.788Z,40.22
2023-05-21T02:42:46.589Z,41.28
2023-05-21T02:45:16.274Z,42.17
2023-05-21T02:47:44.181Z,52.90
2023-05-21T02:50:12.161Z,52.80
2023-05-21T02:52:40.242Z,53.30
2023-05-21T02:55:09.187Z,54.95
2023-05-21T02:57:36.953Z,66.18
2023-05-21T03:00:06.272Z,62.55
2023-05-21T03:02:35.924Z,57.65
2023-05-21T03:05:03.768Z,66.47
2023-05-21T03:07:31.639Z,71.40
2023-05-21T03:09:59.399Z,80.70
2023-05-21T03:12:27.278Z,83.85
2023-05-21T03:14:56.408Z,69.85
2023-05-21T03:17:24.473Z,69.68
2023-05-21T03:19:55.045Z,80.50
2023-05-21T03:22:22.829Z,81.88
2023-05-21T03:24:51.047Z,90.97
2023-05-21T03:27:18.819Z,80.63
2023-05-21T03:29:46.596Z,80.68
2023-05-21T03:32:14.925Z,78.05
2023-05-21T03:34:42.812Z,73.40
2023-05-21T03:37:11.925Z,71.03
2023-05-21T03:39:40.056Z,74.20
2023-05-21T03:42:07.877Z,69.40
2023-05-21T03:44:35.625Z,73.00
2023-05-21T03:47:03.418Z,79.95
2023-05-21T03:49:31.304Z,67.95
2023-05-21T03:51:59.125Z,64.38
2023-05-21T03:54:28.433Z,67.00
2023-05-21T03:56:56.275Z,61.53
2023-05-21T03:59:24.017Z,73.38
2023-05-21T04:01:51.903Z,78.07
2023-05-21T04:04:19.739Z,64.78
2023-05-21T04:06:48.687Z,65.93
2023-05-21T04:09:16.693Z,59.97
2023-05-21T04:11:46.838Z,82.03
2023-05-21T04:14:14.713Z,66.97
2023-05-21T04:16:44.093Z,68.88
2023-05-21T04:19:12.039Z,60.85
2023-05-21T04:21:40.372Z,58.70
2023-05-21T04:24:08.233Z,69.40
2023-05-21T04:26:36.313Z,66.22
2023-05-21T04:29:05.514Z,66.93
2023-05-21T04:31:33.483Z,61.55
2023-05-21T04:34:01.939Z,57.00
2023-05-21T04:36:30.250Z,60.70
2023-05-21T04:38:58.178Z,62.88
2023-05-21T04:41:25.969Z,63.90
2023-05-21T04:43:55.304Z,56.25
2023-05-21T04:46:25.844Z,56.55
2023-05-21T04:48:55.099Z,56.58
2023-05-21T04:51:24.658Z,58.55
2023-05-21T04:53:54.049Z,52.80
2023-05-21T04:56:22.786Z,46.33
2023-05-21T04:58:50.797Z,55.63
2023-05-21T05:01:19.323Z,46.15
2023-05-21T05:03:48.871Z,43.58
2023-05-21T05:06:16.845Z,37.20
2023-05-21T05:08:45.218Z,38.40
2023-05-21T05:11:13.580Z,35.50
2023-05-21T05:13:43.093Z,39.55
2023-05-21T05:16:13.002Z,35.33
2023-05-21T05:18:40.980Z,32.58
2023-05-21T05:21:10.235Z,34.67
2023-05-21T05:23:38.171Z,30.20
2023-05-21T05:26:06.019Z,29.15
2023-05-21T05:28:34.109Z,31.00
2023-05-21T05:31:02.071Z,31.05
2023-05-21T05:33:29.879Z,31.08
2023-05-21T05:35:57.637Z,30.52
2023-05-21T05:38:27.088Z,29.55
2023-05-21T05:40:55.201Z,31.73
2023-05-21T05:43:23.042Z,27.83
2023-05-21T05:45:51.348Z,27.20
2023-05-21T05:48:19.258Z,27.85
2023-05-21T05:50:47.063Z,32.42
2023-05-21T05:53:15.102Z,29.90
2023-05-21T05:55:44.465Z,29.05
2023-05-21T05:58:12.224Z,23.65
2023-05-21T06:00:40.284Z,28.10
2023-05-21T06:03:08.224Z,25.58
2023-05-21T06:05:36.389Z,27.27
2023-05-21T06:08:04.500Z,26.48
2023-05-21T06:10:32.286Z,27.73
2023-05-21T06:13:01.505Z,25.73
2023-05-21T06:15:29.700Z,26.08
2023-05-21T06:17:57.552Z,24.42
2023-05-21T06:20:25.300Z,25.70
2023-05-21T06:22:53.181Z,28.38
2023-05-21T06:25:21.437Z,28.67
2023-05-21T06:27:49.226Z,21.70
2023-05-21T06:30:18.487Z,23.80
2023-05-21T06:32:46.418Z,24.80
2023-05-21T06:35:14.633Z,23.27
2023-05-21T06:37:43.074Z,24.60
2023-05-21T06:40:11.399Z,24.83
2023-05-21T06:42:39.159Z,21.30
2023-05-21T06:45:08.101Z,22.33
2023-05-21T06:47:37.469Z,21.30
2023-05-21T06:50:06.434Z,20.27
2023-05-21T06:52:34.225Z,21.48
2023-05-21T06:55:02.056Z,23.50
2023-05-21T06:57:30.136Z,20.27
2023-05-21T06:59:57.906Z,20.00
2023-05-21T07:02:26.253Z,20.40
2023-05-21T07:04:55.695Z,18.95
2023-05-21T07:07:23.877Z,20.63
2023-05-21T07:09:51.706Z,23.05
2023-05-21T07:12:19.466Z,18.80
2023-05-21T07:14:47.669Z,19.70
2023-05-21T07:17:15.481Z,18.88
2023-05-21T07:19:43.558Z,21.85
2023-05-21T07:22:12.898Z,18.33
2023-05-21T07:24:40.661Z,21.20
2023-05-21T07:27:17.691Z,18.88
2023-05-21T07:29:52.327Z,18.52
2023-05-21T07:32:20.185Z,16.65
2023-05-21T07:34:48.119Z,17.90
2023-05-21T07:37:17.319Z,19.77
2023-05-21T07:39:45.073Z,18.90
2023-05-21T07:42:12.886Z,19.88
2023-05-21T07:44:41.146Z,19.05
2023-05-21T07:47:08.944Z,19.25
2023-05-21T07:49:36.679Z,17.83
2023-05-21T07:52:05.125Z,15.23
2023-05-21T07:54:34.629Z,16.98
2023-05-21T07:57:02.910Z,18.38
2023-05-21T07:59:31.211Z,17.33
2023-05-21T08:01:59.993Z,17.20
2023-05-21T08:04:28.142Z,17.92
2023-05-21T08:06:56.550Z,17.08
2023-05-21T08:09:24.538Z,20.33
2023-05-21T08:11:53.677Z,18.83
2023-05-21T08:14:21.690Z,19.02
2023-05-21T08:16:49.940Z,16.88
2023-05-21T08:19:17.885Z,16.33
2023-05-21T08:21:46.188Z,16.88
2023-05-21T08:24:14.073Z,16.77
2023-05-21T08:26:42.338Z,14.77
2023-05-21T08:29:11.512Z,19.38
2023-05-21T08:31:40.357Z,20.45
2023-05-21T08:34:08.174Z,16.23
2023-05-21T08:36:36.120Z,18.63
2023-05-21T08:39:04.095Z,14.73
2023-05-21T08:41:36.227Z,16.58
2023-05-21T08:44:04.360Z,19.83
2023-05-21T08:46:35.188Z,16.52
2023-05-21T08:49:04.334Z,16.00
2023-05-21T08:51:32.463Z,15.45
2023-05-21T08:54:02.776Z,17.83
2023-05-21T08:56:32.900Z,15.13
2023-05-21T08:59:01.035Z,22.60
2023-05-21T09:01:29.547Z,15.82
2023-05-21T09:04:08.269Z,16.15
2023-05-21T09:06:47.995Z,13.52
2023-05-21T09:09:23.416Z,17.52
2023-05-21T09:11:51.340Z,14.43
2023-05-21T09:14:20.448Z,16.40
2023-05-21T09:16:49.630Z,18.48
2023-05-21T09:19:22.018Z,15.45
2023-05-21T09:21:52.822Z,18.13
2023-05-21T09:24:23.864Z,15.25
2023-05-21T09:26:52.478Z,16.98
2023-05-21T09:29:20.379Z,13.13
2023-05-21T09:31:51.067Z,13.20
2023-05-21T09:34:20.966Z,12.90
2023-05-21T09:36:50.145Z,14.55
2023-05-21T09:39:29.217Z,13.65
2023-05-21T09:42:00.868Z,14.27
2023-05-21T09:44:28.894Z,14.60
2023-05-21T09:46:59.200Z,15.98
2023-05-21T09:49:28.568Z,13.23
2023-05-21T09:51:57.231Z,16.13
2023-05-21T09:54:25.975Z,17.00
2023-05-21T09:56:53.967Z,17.83
2023-05-21T09:59:22.275Z,15.57
2023-05-21T10:01:53.105Z,12.25
2023-05-21T10:04:21.242Z,13.38
2023-05-21T10:06:52.506Z,11.25
2023-05-21T10:09:21.264Z,11.80
2023-05-21T10:11:50.914Z,15.07
2023-05-21T10:14:22.502Z,14.35
2023-05-21T10:16:51.213Z,13.82
2023-05-21T10:19:20.675Z,30.60
2023-05-21T10:21:52.567Z,12.55
2023-05-21T10:24:21.456Z,11.63
2023-05-21T10:26:50.089Z,23.75
2023-05-21T10:29:19.950Z,13.95
2023-05-21T10:31:49.876Z,12.20
2023-05-21T10:34:18.741Z,11.40
2023-05-21T10:36:49.997Z,15.57
2023-05-21T10:39:21.726Z,13.20
2023-05-21T10:41:59.214Z,12.45
2023-05-21T10:44:40.207Z,11.75
2023-05-21T10:47:35.364Z,15.30
2023-05-21T10:50:27.986Z,10.35
2023-05-21T10:53:05.701Z,12.43
2023-05-21T10:55:47.630Z,9.77
2023-05-21T10:58:49.798Z,11.77
2023-05-21T11:01:19.438Z,11.60
2023-05-21T11:03:48.905Z,11.05
2023-05-21T11:06:25.547Z,11.00
2023-05-21T11:08:55.569Z,12.60
2023-05-21T11:11:46.072Z,13.70
2023-05-21T11:14:36.176Z,12.80
2023-05-21T11:17:05.424Z,9.38
2023-05-21T11:19:42.259Z,10.18
2023-05-21T11:22:21.361Z,12.05
2023-05-21T11:24:51.155Z,10.13
2023-05-21T11:27:34.519Z,9.70
2023-05-21T11:30:06.592Z,8.00
2023-05-21T11:32:38.386Z,9.20
2023-05-21T11:35:07.256Z,9.77
2023-05-21T11:37:35.977Z,8.52
2023-05-21T11:40:26.144Z,10.00
2023-05-21T11:42:56.894Z,12.75
2023-05-21T11:45:29.024Z,8.52
2023-05-21T11:47:57.298Z,11.43
2023-05-21T11:50:25.312Z,10.43
2023-05-21T11:52:53.609Z,9.68
2023-05-21T11:55:25.880Z,11.18
2023-05-21T11:57:56.535Z,12.05
2023-05-21T12:00:24.400Z,12.07
2023-05-21T12:02:54.256Z,9.63
2023-05-21T12:05:23.303Z,11.35
2023-05-21T12:07:51.355Z,9.93
2023-05-21T12:10:22.830Z,10.15
2023-05-21T12:12:56.361Z,15.05
2023-05-21T12:15:28.027Z,12.82
2023-05-21T12:17:57.171Z,9.48
2023-05-21T12:20:28.190Z,10.73
2023-05-21T12:22:58.104Z,13.15
2023-05-21T12:25:26.190Z,13.93
2023-05-21T12:27:58.026Z,9.13
2023-05-21T12:30:27.882Z,9.48
2023-05-21T12:32:59.074Z,10.73
2023-05-21T12:37:54.609Z,12.60
2023-05-21T12:40:22.635Z,11.38
2023-05-21T12:42:51.659Z,7.85
2023-05-21T12:45:21.110Z,6.65
2023-05-21T12:47:56.071Z,7.22
2023-05-21T12:50:24.480Z,6.75
2023-05-21T12:52:55.984Z,12.20
2023-05-21T12:55:25.344Z,5.93
2023-05-21T12:58:02.420Z,7.47
2023-05-21T13:00:30.245Z,7.18
2023-05-21T13:03:00.898Z,6.25
2023-05-21T13:05:28.785Z,10.30
2023-05-21T13:07:56.572Z,4.95
2023-05-21T13:10:24.716Z,7.60
2023-05-21T13:12:52.519Z,6.10
2023-05-21T13:15:20.500Z,5.03
2023-05-21T13:17:50.073Z,6.53
2023-05-21T13:20:34.510Z,5.25
2023-05-21T13:23:05.845Z,6.15
2023-05-21T13:25:34.572Z,3.28
2023-05-21T13:28:04.493Z,4.30
2023-05-21T13:30:33.276Z,2.88
2023-05-21T13:33:01.902Z,3.58
2023-05-21T13:35:32.529Z,2.65
2023-05-21T13:38:00.293Z,3.95
2023-05-21T13:40:28.066Z,4.80
2023-05-21T13:42:55.850Z,3.78
2023-05-21T13:45:28.920Z,23.20
2023-05-21T13:47:57.210Z,5.43
2023-05-21T13:50:25.955Z,6.95
2023-05-21T13:52:55.088Z,7.38
2023-05-21T13:55:22.933Z,6.90
2023-05-21T13:57:50.728Z,5.22
2023-05-21T14:00:18.539Z,5.15
2023-05-21T14:02:46.383Z,4.28
2023-05-21T14:05:14.903Z,5.03
2023-05-21T14:07:43.054Z,5.18
2023-05-21T14:10:13.712Z,7.32
2023-05-21T14:12:42.167Z,8.37
2023-05-21T14:15:10.656Z,4.80
2023-05-21T14:17:40.718Z,5.22
2023-05-21T14:20:10.363Z,3.85
2023-05-21T14:22:38.878Z,5.80
2023-05-21T14:25:07.525Z,3.50
2023-05-21T14:27:38.333Z,13.18
2023-05-21T14:30:07.206Z,4.07
2023-05-21T14:32:34.999Z,4.38
2023-05-21T14:35:02.884Z,6.13
2023-05-21T14:37:31.673Z,3.05
2023-05-21T14:39:59.521Z,4.78
2023-05-21T14:42:27.243Z,2.80
2023-05-21T14:44:56.343Z,4.20
2023-05-21T14:47:24.131Z,4.50
2023-05-21T14:49:52.302Z,4.00
2023-05-21T14:52:20.090Z,6.32
2023-05-21T14:54:48.258Z,4.63
2023-05-21T14:57:16.099Z,3.38
2023-05-21T14:59:44.194Z,5.05
2023-05-21T15:02:13.840Z,4.38
2023-05-21T15:04:42.005Z,6.43
2023-05-21T15:07:10.857Z,3.80
2023-05-21T15:09:38.689Z,4.35
2023-05-21T15:12:06.832Z,4.75
2023-05-21T15:14:34.671Z,3.83
2023-05-21T15:17:02.489Z,4.03
2023-05-21T15:19:31.676Z,4.60
2023-05-21T15:21:59.585Z,6.93
2023-05-21T15:24:27.407Z,3.75
2023-05-21T15:26:55.221Z,3.78
2023-05-21T15:29:23.021Z,5.47
2023-05-21T15:31:51.107Z,3.78
2023-05-21T15:34:18.893Z,3.92
2023-05-21T15:36:48.009Z,3.70
2023-05-21T15:39:15.999Z,9.02
2023-05-21T15:41:43.823Z,11.60
2023-05-21T15:44:11.597Z,5.35
2023-05-21T15:46:39.413Z,4.47
2023-05-21T15:49:07.229Z,4.95
2023-05-21T15:51:35.025Z,3.80
2023-05-21T15:54:04.353Z,5.53
2023-05-21T15:56:32.093Z,5.03
2023-05-21T15:59:01.515Z,4.25
2023-05-21T16:01:30.157Z,5.63
2023-05-21T16:03:57.944Z,5.03
2023-05-21T16:06:25.816Z,5.13
2023-05-21T16:08:53.935Z,3.90
2023-05-21T16:11:23.696Z,4.57
2023-05-21T16:13:51.551Z,3.65
2023-05-21T16:16:20.176Z,7.07
2023-05-21T16:18:49.270Z,5.32
2023-05-21T16:21:17.362Z,6.03
2023-05-21T16:23:45.487Z,5.68
2023-05-21T16:26:13.924Z,3.50
2023-05-21T16:28:43.209Z,6.63
2023-05-21T16:31:12.734Z,4.55
2023-05-21T16:33:40.537Z,6.88
2023-05-21T16:36:08.525Z,3.55
2023-05-21T16:38:36.397Z,2.92
2023-05-21T16:41:04.292Z,4.57
2023-05-21T16:43:32.001Z,4.25
2023-05-21T16:46:01.332Z,9.18
2023-05-21T16:48:29.221Z,3.58
2023-05-21T16:50:56.985Z,6.97
2023-05-21T16:53:24.766Z,4.13
2023-05-21T16:55:52.829Z,4.43
2023-05-21T16:58:20.580Z,5.97
2023-05-21T17:00:49.291Z,6.88
2023-05-21T17:03:18.727Z,6.85
2023-05-21T17:05:46.823Z,3.10
2023-05-21T17:08:15.033Z,3.97
2023-05-21T17:10:42.861Z,3.08
2023-05-21T17:13:21.657Z,4.30
2023-05-21T17:15:50.839Z,5.18
2023-05-21T17:18:20.539Z,5.15
2023-05-21T17:20:48.418Z,4.75
2023-05-21T17:23:16.661Z,3.65
2023-05-21T17:25:44.600Z,4.50
2023-05-21T17:28:12.464Z,7.80
2023-05-21T17:30:40.430Z,6.60
2023-05-21T17:33:10.365Z,5.20
2023-05-21T17:35:39.828Z,6.07
2023-05-21T17:38:08.139Z,4.68
2023-05-21T17:40:36.162Z,5.28
2023-05-21T17:43:04.295Z,5.18
2023-05-21T17:45:32.216Z,6.65
2023-05-21T17:48:00.796Z,6.00
2023-05-21T17:50:29.126Z,9.38
2023-05-21T17:52:58.256Z,5.97
2023-05-21T17:55:26.041Z,8.88
2023-05-21T17:57:53.814Z,4.15
2023-05-21T18:00:22.205Z,8.25
2023-05-21T18:02:50.159Z,6.38
2023-05-21T18:05:17.952Z,7.78
2023-05-21T18:07:45.709Z,6.07
2023-05-21T18:10:15.554Z,6.22
2023-05-21T18:12:43.808Z,7.22
2023-05-21T18:15:12.322Z,5.97
2023-05-21T18:17:40.129Z,7.32
2023-05-21T18:20:09.476Z,9.82
2023-05-21T18:22:37.727Z,8.05
2023-05-21T18:25:06.606Z,6.10
2023-05-21T18:27:35.894Z,7.72
2023-05-21T18:30:06.318Z,5.70
2023-05-21T18:32:34.658Z,7.35
2023-05-21T18:35:02.452Z,6.10
2023-05-21T18:37:30.233Z,12.93
2023-05-21T18:39:57.970Z,8.77
2023-05-21T18:42:28.209Z,8.60
2023-05-21T18:44:57.792Z,7.20
2023-05-21T18:47:25.598Z,9.00
2023-05-21T18:49:53.574Z,9.25
2023-05-21T18:52:21.332Z,9.45
2023-05-21T18:54:49.146Z,7.15
2023-05-21T18:57:16.927Z,7.00
2023-05-21T18:59:44.914Z,11.27
2023-05-21T19:02:14.290Z,7.85
2023-05-21T19:04:44.024Z,12.05
2023-05-21T19:07:12.016Z,8.68
2023-05-21T19:09:39.780Z,8.18
2023-05-21T19:12:08.289Z,7.85
2023-05-21T19:14:36.097Z,10.05
2023-05-21T19:17:03.849Z,7.75
2023-05-21T19:19:33.100Z,10.73
2023-05-21T19:22:00.986Z,7.63
2023-05-21T19:24:28.745Z,10.25
2023-05-21T19:26:56.583Z,7.70
2023-05-21T19:29:24.361Z,13.27
2023-05-21T19:31:54.985Z,8.57
2023-05-21T19:34:23.135Z,11.68
2023-05-21T19:36:53.682Z,11.57
2023-05-21T19:39:22.010Z,8.43
2023-05-21T19:41:49.953Z,9.85
2023-05-21T19:44:18.227Z,7.35
2023-05-21T19:46:46.046Z,10.85
2023-05-21T19:49:15.806Z,11.95
2023-05-21T19:51:43.951Z,7.68
2023-05-21T19:54:13.528Z,11.43
2023-05-21T19:56:41.524Z,9.02
2023-05-21T19:59:09.322Z,9.82
2023-05-21T20:01:39.779Z,9.38
2023-05-21T20:04:09.314Z,9.43
2023-05-21T20:06:37.421Z,13.20
2023-05-21T20:09:05.509Z,11.43
2023-05-21T20:11:36.084Z,7.82
2023-05-21T20:14:04.476Z,12.57
2023-05-21T20:16:33.377Z,14.50
2023-05-21T20:19:01.854Z,10.50
2023-05-21T20:21:31.542Z,8.25
2023-05-21T20:23:59.339Z,8.95
2023-05-21T20:26:27.239Z,10.88
2023-05-21T20:28:56.383Z,12.60
2023-05-21T20:31:25.403Z,8.20
2023-05-21T20:33:53.781Z,7.60
2023-05-21T20:36:21.932Z,10.27
2023-05-21T20:38:49.715Z,9.93
2023-05-21T20:41:17.557Z,8.60
2023-05-21T20:43:46.021Z,8.77
2023-05-21T20:46:18.701Z,12.00
2023-05-21T20:48:47.283Z,15.35
2023-05-21T20:51:15.541Z,9.63
2023-05-21T20:53:43.703Z,10.02
2023-05-21T20:56:15.282Z,9.32
2023-05-21T20:58:44.175Z,7.38
2023-05-21T21:01:14.497Z,11.40
2023-05-21T21:03:45.656Z,8.35
2023-05-21T21:06:13.843Z,10.73
2023-05-21T21:08:46.086Z,9.63
2023-05-21T21:11:14.258Z,9.93
2023-05-21T21:13:42.176Z,9.27
2023-05-21T21:16:10.126Z,11.82
2023-05-21T21:18:38.061Z,9.55
2023-05-21T21:21:07.504Z,9.35
2023-05-21T21:23:35.311Z,10.35
2023-05-21T21:26:03.081Z,8.00
2023-05-21T21:28:31.095Z,12.27
2023-05-21T21:30:59.068Z,6.30
2023-05-21T21:33:27.287Z,9.32
2023-05-21T21:35:55.213Z,10.45
2023-05-21T21:38:24.363Z,9.85
2023-05-21T21:40:52.285Z,9.88
2023-05-21T21:43:20.454Z,7.50
2023-05-21T21:45:48.205Z,9.52
2023-05-21T21:48:16.586Z,7.28
2023-05-21T21:50:44.531Z,7.75
2023-05-21T21:53:14.255Z,10.02
2023-05-21T21:55:45.350Z,9.82
2023-05-21T21:58:13.521Z,9.85
2023-05-21T22:00:41.500Z,8.95
2023-05-21T22:03:10.667Z,11.55
2023-05-21T22:05:39.373Z,9.48
2023-05-21T22:08:07.165Z,9.07
2023-05-21T22:10:38.502Z,10.15
2023-05-21T22:13:07.980Z,11.05
2023-05-21T22:15:35.863Z,8.73
2023-05-21T22:18:04.165Z,8.95
2023-05-21T22:20:33.130Z,11.77
2023-05-21T22:23:01.517Z,9.70
2023-05-21T22:25:29.260Z,10.88
2023-05-21T22:27:57.111Z,10.60
2023-05-21T22:30:26.302Z,7.88
2023-05-21T22:32:54.178Z,6.97
2023-05-21T22:35:21.918Z,10.32
2023-05-21T22:37:49.654Z,7.32
2023-05-21T22:40:17.703Z,8.43
2023-05-21T22:42:46.922Z,8.85
2023-05-21T22:45:15.354Z,10.05
2023-05-21T22:47:44.968Z,16.83
2023-05-21T22:50:12.843Z,14.00
2023-05-21T22:52:40.866Z,10.63
2023-05-21T22:55:11.369Z,8.68
2023-05-21T22:57:39.199Z,11.15
2023-05-21T23:00:08.994Z,11.60
2023-05-21T23:02:36.932Z,13.45
2023-05-21T23:05:06.615Z,8.77
2023-05-21T23:07:34.424Z,12.82
2023-05-21T23:10:02.184Z,9.73
2023-05-21T23:12:30.457Z,9.43
2023-05-21T23:14:58.250Z,8.82
2023-05-21T23:17:26.669Z,10.43
2023-05-21T23:19:54.514Z,8.10
2023-05-21T23:22:23.680Z,12.90
2023-05-21T23:24:51.670Z,9.73
2023-05-21T23:27:19.809Z,14.60
2023-05-21T23:29:47.592Z,11.50
2023-05-21T23:32:15.396Z,7.93
2023-05-21T23:34:43.160Z,11.88
2023-05-21T23:37:10.943Z,11.40
2023-05-21T23:39:40.152Z,10.55
2023-05-21T23:42:08.606Z,9.90
2023-05-21T23:44:36.379Z,10.23
2023-05-21T23:47:04.221Z,13.25
2023-05-21T23:49:32.182Z,13.88
2023-05-21T23:52:00.267Z,10.65
2023-05-21T23:54:28.244Z,12.07
2023-05-21T23:56:57.433Z,17.35
2023-05-21T23:59:25.779Z,11.23
